sensor_id;sensor_type;location;lat;lon;timestamp;P1;durP1;ratioP1;P2;durP2;ratioP2
1577;SDS011;57623;53.608;10.004;2024-03-06T00:02:06;13.07;;;9.83;;
1577;SDS011;57623;53.608;10.004;2024-03-06T00:04:34;14.80;;;10.57;;
1577;SDS011;57623;53.608;10.004;2024-03-06T00:07:02;11.30;;;10.00;;
1577;SDS011;57623;53.608;10.004;2024-03-06T00:09:30;12.70;;;9.47;;
1577;SDS011;57623;53.608;10.004;2024-03-06T00:11:58;11.20;;;9.70;;
1577;SDS011;57623;53.608;10.004;2024-03-06T00:14:26;11.33;;;9.93;;
1577;SDS011;57623;53.608;10.004;2024-03-06T00:16:56;9.97;;;8.90;;
1577;SDS011;57623;53.608;10.004;2024-03-06T00:19:24;12.20;;;9.23;;
1577;SDS011;57623;53.608;10.004;2024-03-06T00:21:52;14.07;;;9.60;;
1577;SDS011;57623;53.608;10.004;2024-03-06T00:24:20;10.50;;;8.43;;
1577;SDS011;57623;53.608;10.004;2024-03-06T00:26:49;11.30;;;9.00;;
1577;SDS011;57623;53.608;10.004;2024-03-06T00:29:17;10.23;;;8.30;;
1577;SDS011;57623;53.608;10.004;2024-03-06T00:31:45;10.60;;;8.50;;
1577;SDS011;57623;53.608;10.004;2024-03-06T00:34:15;10.07;;;9.00;;
1577;SDS011;57623;53.608;10.004;2024-03-06T00:36:43;10.17;;;9.17;;
1577;SDS011;57623;53.608;10.004;2024-03-06T00:39:11;9.87;;;8.83;;
1577;SDS011;57623;53.608;10.004;2024-03-06T00:41:40;9.37;;;8.07;;
1577;SDS011;57623;53.608;10.004;2024-03-06T00:44:09;9.40;;;8.50;;
1577;SDS011;57623;53.608;10.004;2024-03-06T00:46:38;9.10;;;8.17;;
1577;SDS011;57623;53.608;10.004;2024-03-06T00:49:06;11.07;;;9.07;;
1577;SDS011;57623;53.608;10.004;2024-03-06T00:51:35;10.13;;;8.37;;
1577;SDS011;57623;53.608;10.004;2024-03-06T00:54:14;10.53;;;8.43;;
1577;SDS011;57623;53.608;10.004;2024-03-06T00:56:43;11.13;;;8.57;;
1577;SDS011;57623;53.608;10.004;2024-03-06T00:59:11;12.53;;;8.63;;
1577;SDS011;57623;53.608;10.004;2024-03-06T01:01:39;9.37;;;8.40;;
1577;SDS011;57623;53.608;10.004;2024-03-06T01:04:08;11.60;;;8.87;;
1577;SDS011;57623;53.608;10.004;2024-03-06T01:06:37;10.20;;;8.87;;
1577;SDS011;57623;53.608;10.004;2024-03-06T01:09:05;9.80;;;8.60;;
1577;SDS011;57623;53.608;10.004;2024-03-06T01:11:33;11.80;;;9.00;;
1577;SDS011;57623;53.608;10.004;2024-03-06T01:14:01;13.20;;;9.73;;
1577;SDS011;57623;53.608;10.004;2024-03-06T01:16:30;11.83;;;8.60;;
1577;SDS011;57623;53.608;10.004;2024-03-06T01:18:58;13.63;;;9.93;;
1577;SDS011;57623;53.608;10.004;2024-03-06T01:21:26;9.80;;;8.60;;
1577;SDS011;57623;53.608;10.004;2024-03-06T01:23:56;11.03;;;9.03;;
1577;SDS011;57623;53.608;10.004;2024-03-06T01:26:24;11.33;;;8.90;;
1577;SDS011;57623;53.608;10.004;2024-03-06T01:28:52;10.67;;;8.57;;
1577;SDS011;57623;53.608;10.004;2024-03-06T01:31:20;11.30;;;9.10;;
1577;SDS011;57623;53.608;10.004;2024-03-06T01:33:48;8.97;;;8.07;;
1577;SDS011;57623;53.608;10.004;2024-03-06T01:36:16;10.83;;;9.00;;
1577;SDS011;57623;53.608;10.004;2024-03-06T01:38:44;10.53;;;8.80;;
1577;SDS011;57623;53.608;10.004;2024-03-06T01:41:14;11.47;;;9.03;;
1577;SDS011;57623;53.608;10.004;2024-03-06T01:43:42;9.57;;;8.00;;
1577;SDS011;57623;53.608;10.004;2024-03-06T01:46:10;9.90;;;8.90;;
1577;SDS011;57623;53.608;10.004;2024-03-06T01:48:38;11.00;;;8.17;;
1577;SDS011;57623;53.608;10.004;2024-03-06T01:51:09;8.90;;;8.00;;
1577;SDS011;57623;53.608;10.004;2024-03-06T01:53:37;10.63;;;8.17;;
1577;SDS011;57623;53.608;10.004;2024-03-06T01:56:06;11.77;;;8.80;;
1577;SDS011;57623;53.608;10.004;2024-03-06T01:58:39;9.40;;;8.13;;
1577;SDS011;57623;53.608;10.004;2024-03-06T02:01:09;9.63;;;8.33;;
1577;SDS011;57623;53.608;10.004;2024-03-06T02:03:37;11.77;;;8.90;;
1577;SDS011;57623;53.608;10.004;2024-03-06T02:06:05;9.50;;;8.13;;
1577;SDS011;57623;53.608;10.004;2024-03-06T02:08:37;11.63;;;8.10;;
1577;SDS011;57623;53.608;10.004;2024-03-06T02:11:05;9.73;;;8.17;;
1577;SDS011;57623;53.608;10.004;2024-03-06T02:13:33;9.93;;;8.37;;
1577;SDS011;57623;53.608;10.004;2024-03-06T02:16:03;11.37;;;8.90;;
1577;SDS011;57623;53.608;10.004;2024-03-06T02:18:31;11.60;;;8.40;;
1577;SDS011;57623;53.608;10.004;2024-03-06T02:21:01;13.80;;;8.83;;
1577;SDS011;57623;53.608;10.004;2024-03-06T02:23:29;11.00;;;8.03;;
1577;SDS011;57623;53.608;10.004;2024-03-06T02:25:57;9.37;;;8.30;;
1577;SDS011;57623;53.608;10.004;2024-03-06T02:28:25;8.73;;;7.83;;
1577;SDS011;57623;53.608;10.004;2024-03-06T02:30:53;9.57;;;7.80;;
1577;SDS011;57623;53.608;10.004;2024-03-06T02:33:21;8.93;;;8.03;;
1577;SDS011;57623;53.608;10.004;2024-03-06T02:35:49;8.70;;;7.80;;
1577;SDS011;57623;53.608;10.004;2024-03-06T02:38:19;9.40;;;8.40;;
1577;SDS011;57623;53.608;10.004;2024-03-06T02:40:47;8.77;;;7.90;;
1577;SDS011;57623;53.608;10.004;2024-03-06T02:43:15;8.60;;;7.43;;
1577;SDS011;57623;53.608;10.004;2024-03-06T02:45:43;9.77;;;7.50;;
1577;SDS011;57623;53.608;10.004;2024-03-06T02:48:11;9.80;;;8.30;;
1577;SDS011;57623;53.608;10.004;2024-03-06T02:50:39;9.80;;;7.90;;
1577;SDS011;57623;53.608;10.004;2024-03-06T02:53:07;14.90;;;7.77;;
1577;SDS011;57623;53.608;10.004;2024-03-06T02:55:36;8.23;;;7.43;;
1577;SDS011;57623;53.608;10.004;2024-03-06T02:58:04;9.13;;;7.80;;
1577;SDS011;57623;53.608;10.004;2024-03-06T03:00:33;9.10;;;7.40;;
1577;SDS011;57623;53.608;10.004;2024-03-06T03:03:01;9.20;;;6.70;;
1577;SDS011;57623;53.608;10.004;2024-03-06T03:05:29;8.70;;;7.80;;
1577;SDS011;57623;53.608;10.004;2024-03-06T03:07:57;7.80;;;7.10;;
1577;SDS011;57623;53.608;10.004;2024-03-06T03:10:25;8.07;;;7.00;;
1577;SDS011;57623;53.608;10.004;2024-03-06T03:12:54;10.00;;;7.70;;
1577;SDS011;57623;53.608;10.004;2024-03-06T03:15:22;8.07;;;7.30;;
1577;SDS011;57623;53.608;10.004;2024-03-06T03:17:50;10.00;;;7.70;;
1577;SDS011;57623;53.608;10.004;2024-03-06T03:20:19;9.60;;;7.63;;
1577;SDS011;57623;53.608;10.004;2024-03-06T03:22:47;8.20;;;7.47;;
1577;SDS011;57623;53.608;10.004;2024-03-06T03:25:15;8.93;;;7.73;;
1577;SDS011;57623;53.608;10.004;2024-03-06T03:27:43;10.00;;;7.07;;
1577;SDS011;57623;53.608;10.004;2024-03-06T03:30:13;8.87;;;7.23;;
1577;SDS011;57623;53.608;10.004;2024-03-06T03:32:42;11.20;;;7.47;;
1577;SDS011;57623;53.608;10.004;2024-03-06T03:35:11;8.13;;;7.17;;
1577;SDS011;57623;53.608;10.004;2024-03-06T03:37:39;9.73;;;7.60;;
1577;SDS011;57623;53.608;10.004;2024-03-06T03:40:08;9.00;;;6.80;;
1577;SDS011;57623;53.608;10.004;2024-03-06T03:42:38;7.30;;;6.60;;
1577;SDS011;57623;53.608;10.004;2024-03-06T03:45:06;7.83;;;7.10;;
1577;SDS011;57623;53.608;10.004;2024-03-06T03:47:37;10.80;;;7.50;;
1577;SDS011;57623;53.608;10.004;2024-03-06T03:50:05;9.80;;;7.10;;
1577;SDS011;57623;53.608;10.004;2024-03-06T03:52:37;7.50;;;6.70;;
1577;SDS011;57623;53.608;10.004;2024-03-06T03:55:08;9.93;;;6.97;;
1577;SDS011;57623;53.608;10.004;2024-03-06T03:57:37;8.40;;;6.90;;
1577;SDS011;57623;53.608;10.004;2024-03-06T04:00:05;9.10;;;7.13;;
1577;SDS011;57623;53.608;10.004;2024-03-06T04:02:39;7.60;;;6.80;;
1577;SDS011;57623;53.608;10.004;2024-03-06T04:05:07;10.00;;;7.67;;
1577;SDS011;57623;53.608;10.004;2024-03-06T04:07:36;9.10;;;7.27;;
1577;SDS011;57623;53.608;10.004;2024-03-06T04:10:04;8.67;;;7.40;;
1577;SDS011;57623;53.608;10.004;2024-03-06T04:12:33;7.37;;;6.30;;
1577;SDS011;57623;53.608;10.004;2024-03-06T04:15:01;7.20;;;6.50;;
1577;SDS011;57623;53.608;10.004;2024-03-06T04:17:30;8.03;;;6.77;;
1577;SDS011;57623;53.608;10.004;2024-03-06T04:19:59;8.10;;;6.47;;
1577;SDS011;57623;53.608;10.004;2024-03-06T04:22:27;8.63;;;6.67;;
1577;SDS011;57623;53.608;10.004;2024-03-06T04:24:55;10.73;;;6.63;;
1577;SDS011;57623;53.608;10.004;2024-03-06T04:27:25;8.53;;;7.07;;
1577;SDS011;57623;53.608;10.004;2024-03-06T04:29:53;7.13;;;6.10;;
1577;SDS011;57623;53.608;10.004;2024-03-06T04:32:21;8.37;;;7.60;;
1577;SDS011;57623;53.608;10.004;2024-03-06T04:34:49;8.33;;;6.23;;
1577;SDS011;57623;53.608;10.004;2024-03-06T04:37:18;9.60;;;8.57;;
1577;SDS011;57623;53.608;10.004;2024-03-06T04:39:46;7.80;;;6.77;;
1577;SDS011;57623;53.608;10.004;2024-03-06T04:42:15;7.40;;;6.70;;
1577;SDS011;57623;53.608;10.004;2024-03-06T04:44:44;7.00;;;6.00;;
1577;SDS011;57623;53.608;10.004;2024-03-06T04:47:13;8.07;;;6.87;;
1577;SDS011;57623;53.608;10.004;2024-03-06T04:49:41;6.97;;;5.87;;
1577;SDS011;57623;53.608;10.004;2024-03-06T04:52:09;7.10;;;6.40;;
1577;SDS011;57623;53.608;10.004;2024-03-06T04:54:39;7.97;;;6.80;;
1577;SDS011;57623;53.608;10.004;2024-03-06T04:57:07;8.67;;;6.10;;
1577;SDS011;57623;53.608;10.004;2024-03-06T04:59:35;8.43;;;6.70;;
1577;SDS011;57623;53.608;10.004;2024-03-06T05:02:03;7.13;;;6.43;;
1577;SDS011;57623;53.608;10.004;2024-03-06T05:04:31;7.47;;;6.50;;
1577;SDS011;57623;53.608;10.004;2024-03-06T05:07:17;6.97;;;5.90;;
1577;SDS011;57623;53.608;10.004;2024-03-06T05:10:04;7.90;;;6.40;;
1577;SDS011;57623;53.608;10.004;2024-03-06T05:12:51;6.70;;;6.00;;
1577;SDS011;57623;53.608;10.004;2024-03-06T05:15:37;6.23;;;5.63;;
1577;SDS011;57623;53.608;10.004;2024-03-06T05:18:23;7.57;;;6.23;;
1577;SDS011;57623;53.608;10.004;2024-03-06T05:21:09;7.67;;;6.87;;
1577;SDS011;57623;53.608;10.004;2024-03-06T05:23:55;7.90;;;6.60;;
1577;SDS011;57623;53.608;10.004;2024-03-06T05:26:42;7.03;;;6.30;;
1577;SDS011;57623;53.608;10.004;2024-03-06T05:29:27;11.17;;;6.77;;
1577;SDS011;57623;53.608;10.004;2024-03-06T05:32:13;7.50;;;6.13;;
1577;SDS011;57623;53.608;10.004;2024-03-06T05:34:59;9.20;;;6.83;;
1577;SDS011;57623;53.608;10.004;2024-03-06T05:37:44;8.67;;;7.77;;
1577;SDS011;57623;53.608;10.004;2024-03-06T05:40:30;7.23;;;6.53;;
1577;SDS011;57623;53.608;10.004;2024-03-06T05:43:20;7.13;;;6.43;;
1577;SDS011;57623;53.608;10.004;2024-03-06T05:46:06;8.70;;;6.20;;
1577;SDS011;57623;53.608;10.004;2024-03-06T05:48:52;7.77;;;6.97;;
1577;SDS011;57623;53.608;10.004;2024-03-06T05:51:37;7.10;;;6.30;;
1577;SDS011;57623;53.608;10.004;2024-03-06T05:54:23;7.53;;;6.43;;
1577;SDS011;57623;53.608;10.004;2024-03-06T05:57:09;7.60;;;6.90;;
1577;SDS011;57623;53.608;10.004;2024-03-06T05:59:56;8.53;;;7.00;;
1577;SDS011;57623;53.608;10.004;2024-03-06T06:02:24;8.30;;;7.00;;
1577;SDS011;57623;53.608;10.004;2024-03-06T06:04:53;7.37;;;6.50;;
1577;SDS011;57623;53.608;10.004;2024-03-06T06:07:41;8.53;;;7.30;;
1577;SDS011;57623;53.608;10.004;2024-03-06T06:10:09;8.17;;;7.37;;
1577;SDS011;57623;53.608;10.004;2024-03-06T06:12:37;7.07;;;6.37;;
1577;SDS011;57623;53.608;10.004;2024-03-06T06:15:07;7.90;;;7.10;;
1577;SDS011;57623;53.608;10.004;2024-03-06T06:17:36;7.47;;;6.77;;
1577;SDS011;57623;53.608;10.004;2024-03-06T06:20:06;9.37;;;8.00;;
1577;SDS011;57623;53.608;10.004;2024-03-06T06:22:36;8.30;;;7.40;;
1577;SDS011;57623;53.608;10.004;2024-03-06T06:25:04;8.67;;;7.40;;
1577;SDS011;57623;53.608;10.004;2024-03-06T06:27:33;9.37;;;7.00;;
1577;SDS011;57623;53.608;10.004;2024-03-06T06:30:01;8.53;;;7.67;;
1577;SDS011;57623;53.608;10.004;2024-03-06T06:32:34;8.20;;;7.40;;
1577;SDS011;57623;53.608;10.004;2024-03-06T06:35:02;7.60;;;6.90;;
1577;SDS011;57623;53.608;10.004;2024-03-06T06:37:31;9.80;;;7.87;;
1577;SDS011;57623;53.608;10.004;2024-03-06T06:40:00;8.53;;;7.40;;
1577;SDS011;57623;53.608;10.004;2024-03-06T06:42:32;9.37;;;7.80;;
1577;SDS011;57623;53.608;10.004;2024-03-06T06:45:00;10.47;;;8.57;;
1577;SDS011;57623;53.608;10.004;2024-03-06T06:47:28;11.67;;;10.47;;
1577;SDS011;57623;53.608;10.004;2024-03-06T06:49:58;11.50;;;9.70;;
1577;SDS011;57623;53.608;10.004;2024-03-06T06:52:26;11.67;;;9.30;;
1577;SDS011;57623;53.608;10.004;2024-03-06T06:54:55;10.73;;;8.90;;
1577;SDS011;57623;53.608;10.004;2024-03-06T06:57:23;9.93;;;8.50;;
1577;SDS011;57623;53.608;10.004;2024-03-06T06:59:51;10.27;;;8.70;;
1577;SDS011;57623;53.608;10.004;2024-03-06T07:02:19;11.90;;;8.83;;
1577;SDS011;57623;53.608;10.004;2024-03-06T07:04:48;8.73;;;7.50;;
1577;SDS011;57623;53.608;10.004;2024-03-06T07:07:17;9.50;;;8.27;;
1577;SDS011;57623;53.608;10.004;2024-03-06T07:09:45;9.87;;;8.30;;
1577;SDS011;57623;53.608;10.004;2024-03-06T07:12:13;8.73;;;7.93;;
1577;SDS011;57623;53.608;10.004;2024-03-06T07:14:41;9.30;;;8.07;;
1577;SDS011;57623;53.608;10.004;2024-03-06T07:17:09;10.00;;;9.00;;
1577;SDS011;57623;53.608;10.004;2024-03-06T07:19:37;12.33;;;9.20;;
1577;SDS011;57623;53.608;10.004;2024-03-06T07:22:06;9.80;;;8.40;;
1577;SDS011;57623;53.608;10.004;2024-03-06T07:24:36;11.03;;;8.00;;
1577;SDS011;57623;53.608;10.004;2024-03-06T07:27:04;9.40;;;8.40;;
1577;SDS011;57623;53.608;10.004;2024-03-06T07:29:35;9.40;;;8.47;;
1577;SDS011;57623;53.608;10.004;2024-03-06T07:32:03;8.90;;;8.00;;
1577;SDS011;57623;53.608;10.004;2024-03-06T07:34:32;8.27;;;7.47;;
1577;SDS011;57623;53.608;10.004;2024-03-06T07:37:01;9.03;;;8.13;;
1577;SDS011;57623;53.608;10.004;2024-03-06T07:39:31;12.10;;;8.53;;
1577;SDS011;57623;53.608;10.004;2024-03-06T07:42:02;9.10;;;8.20;;
1577;SDS011;57623;53.608;10.004;2024-03-06T07:44:31;9.20;;;7.50;;
1577;SDS011;57623;53.608;10.004;2024-03-06T07:46:59;8.60;;;7.80;;
1577;SDS011;57623;53.608;10.004;2024-03-06T07:49:27;10.30;;;8.33;;
1577;SDS011;57623;53.608;10.004;2024-03-06T07:51:55;9.90;;;7.53;;
1577;SDS011;57623;53.608;10.004;2024-03-06T07:54:23;8.53;;;7.10;;
1577;SDS011;57623;53.608;10.004;2024-03-06T07:56:51;8.33;;;7.57;;
1577;SDS011;57623;53.608;10.004;2024-03-06T07:59:21;8.80;;;7.40;;
1577;SDS011;57623;53.608;10.004;2024-03-06T08:01:49;9.77;;;7.53;;
1577;SDS011;57623;53.608;10.004;2024-03-06T08:04:18;9.80;;;7.37;;
1577;SDS011;57623;53.608;10.004;2024-03-06T08:06:46;8.40;;;7.40;;
1577;SDS011;57623;53.608;10.004;2024-03-06T08:09:14;8.77;;;7.50;;
1577;SDS011;57623;53.608;10.004;2024-03-06T08:11:43;7.70;;;6.90;;
1577;SDS011;57623;53.608;10.004;2024-03-06T08:14:11;7.60;;;6.90;;
1577;SDS011;57623;53.608;10.004;2024-03-06T08:16:42;8.20;;;7.00;;
1577;SDS011;57623;53.608;10.004;2024-03-06T08:19:10;6.97;;;6.27;;
1577;SDS011;57623;53.608;10.004;2024-03-06T08:21:38;8.20;;;6.90;;
1577;SDS011;57623;53.608;10.004;2024-03-06T08:24:07;8.77;;;6.50;;
1577;SDS011;57623;53.608;10.004;2024-03-06T08:26:35;8.90;;;6.40;;
1577;SDS011;57623;53.608;10.004;2024-03-06T08:29:03;7.97;;;6.53;;
1577;SDS011;57623;53.608;10.004;2024-03-06T08:31:31;7.87;;;6.67;;
1577;SDS011;57623;53.608;10.004;2024-03-06T08:34:00;8.20;;;6.60;;
1577;SDS011;57623;53.608;10.004;2024-03-06T08:36:28;7.77;;;6.97;;
1577;SDS011;57623;53.608;10.004;2024-03-06T08:38:56;8.30;;;6.50;;
1577;SDS011;57623;53.608;10.004;2024-03-06T08:41:24;7.57;;;6.73;;
1577;SDS011;57623;53.608;10.004;2024-03-06T08:43:52;7.43;;;6.73;;
1577;SDS011;57623;53.608;10.004;2024-03-06T08:46:20;7.83;;;7.10;;
1577;SDS011;57623;53.608;10.004;2024-03-06T08:48:50;8.27;;;7.00;;
1577;SDS011;57623;53.608;10.004;2024-03-06T08:51:19;9.17;;;7.53;;
1577;SDS011;57623;53.608;10.004;2024-03-06T08:53:48;7.63;;;6.80;;
1577;SDS011;57623;53.608;10.004;2024-03-06T08:56:16;8.37;;;7.50;;
1577;SDS011;57623;53.608;10.004;2024-03-06T08:58:45;7.47;;;6.73;;
1577;SDS011;57623;53.608;10.004;2024-03-06T09:01:13;7.23;;;6.60;;
1577;SDS011;57623;53.608;10.004;2024-03-06T09:03:41;9.70;;;7.40;;
1577;SDS011;57623;53.608;10.004;2024-03-06T09:06:09;8.00;;;6.90;;
1577;SDS011;57623;53.608;10.004;2024-03-06T09:08:40;7.43;;;6.53;;
1577;SDS011;57623;53.608;10.004;2024-03-06T09:11:08;7.33;;;6.63;;
1577;SDS011;57623;53.608;10.004;2024-03-06T09:13:36;7.63;;;6.40;;
1577;SDS011;57623;53.608;10.004;2024-03-06T09:16:04;9.43;;;6.20;;
1577;SDS011;57623;53.608;10.004;2024-03-06T09:18:33;7.13;;;6.30;;
1577;SDS011;57623;53.608;10.004;2024-03-06T09:21:01;7.67;;;6.87;;
1577;SDS011;57623;53.608;10.004;2024-03-06T09:23:30;7.20;;;6.30;;
1577;SDS011;57623;53.608;10.004;2024-03-06T09:26:01;7.30;;;6.17;;
1577;SDS011;57623;53.608;10.004;2024-03-06T09:28:29;7.30;;;6.60;;
1577;SDS011;57623;53.608;10.004;2024-03-06T09:30:57;8.10;;;7.30;;
1577;SDS011;57623;53.608;10.004;2024-03-06T09:33:25;7.03;;;6.07;;
1577;SDS011;57623;53.608;10.004;2024-03-06T09:35:53;9.03;;;7.47;;
1577;SDS011;57623;53.608;10.004;2024-03-06T09:38:22;7.40;;;6.70;;
1577;SDS011;57623;53.608;10.004;2024-03-06T09:40:50;10.73;;;8.03;;
1577;SDS011;57623;53.608;10.004;2024-03-06T09:43:20;7.50;;;6.70;;
1577;SDS011;57623;53.608;10.004;2024-03-06T09:45:48;7.80;;;6.63;;
1577;SDS011;57623;53.608;10.004;2024-03-06T09:48:18;7.47;;;6.70;;
1577;SDS011;57623;53.608;10.004;2024-03-06T09:50:48;7.77;;;6.97;;
1577;SDS011;57623;53.608;10.004;2024-03-06T09:53:18;8.90;;;6.93;;
1577;SDS011;57623;53.608;10.004;2024-03-06T09:55:49;7.40;;;6.70;;
1577;SDS011;57623;53.608;10.004;2024-03-06T09:58:18;7.47;;;6.60;;
1577;SDS011;57623;53.608;10.004;2024-03-06T10:00:47;7.50;;;6.80;;
1577;SDS011;57623;53.608;10.004;2024-03-06T10:03:17;7.40;;;6.57;;
1577;SDS011;57623;53.608;10.004;2024-03-06T10:05:46;10.53;;;7.20;;
1577;SDS011;57623;53.608;10.004;2024-03-06T10:08:14;8.43;;;7.30;;
1577;SDS011;57623;53.608;10.004;2024-03-06T10:10:43;8.70;;;7.80;;
1577;SDS011;57623;53.608;10.004;2024-03-06T10:13:12;11.53;;;8.17;;
1577;SDS011;57623;53.608;10.004;2024-03-06T10:15:41;10.67;;;9.00;;
1577;SDS011;57623;53.608;10.004;2024-03-06T10:18:10;8.93;;;8.03;;
1577;SDS011;57623;53.608;10.004;2024-03-06T10:20:39;10.37;;;9.03;;
1577;SDS011;57623;53.608;10.004;2024-03-06T10:23:10;10.60;;;8.47;;
1577;SDS011;57623;53.608;10.004;2024-03-06T10:25:38;8.27;;;7.47;;
1577;SDS011;57623;53.608;10.004;2024-03-06T10:28:06;9.70;;;8.00;;
1577;SDS011;57623;53.608;10.004;2024-03-06T10:30:36;8.97;;;8.07;;
1577;SDS011;57623;53.608;10.004;2024-03-06T10:33:10;11.47;;;8.87;;
1577;SDS011;57623;53.608;10.004;2024-03-06T10:35:39;10.20;;;9.13;;
1577;SDS011;57623;53.608;10.004;2024-03-06T10:38:08;10.10;;;8.80;;
1577;SDS011;57623;53.608;10.004;2024-03-06T10:40:38;12.40;;;8.90;;
1577;SDS011;57623;53.608;10.004;2024-03-06T10:43:07;9.47;;;8.47;;
1577;SDS011;57623;53.608;10.004;2024-03-06T10:45:39;9.63;;;8.63;;
1577;SDS011;57623;53.608;10.004;2024-03-06T10:48:11;10.13;;;8.73;;
1577;SDS011;57623;53.608;10.004;2024-03-06T10:50:41;9.70;;;8.70;;
1577;SDS011;57623;53.608;10.004;2024-03-06T10:53:11;11.70;;;9.00;;
1577;SDS011;57623;53.608;10.004;2024-03-06T10:55:46;9.47;;;8.47;;
1577;SDS011;57623;53.608;10.004;2024-03-06T10:58:17;10.23;;;8.10;;
1577;SDS011;57623;53.608;10.004;2024-03-06T11:00:47;10.30;;;8.40;;
1577;SDS011;57623;53.608;10.004;2024-03-06T11:03:17;10.67;;;9.30;;
1577;SDS011;57623;53.608;10.004;2024-03-06T11:05:45;9.97;;;8.97;;
1577;SDS011;57623;53.608;10.004;2024-03-06T11:08:17;9.40;;;8.50;;
1577;SDS011;57623;53.608;10.004;2024-03-06T11:10:45;10.50;;;9.20;;
1577;SDS011;57623;53.608;10.004;2024-03-06T11:13:23;9.07;;;8.17;;
1577;SDS011;57623;53.608;10.004;2024-03-06T11:15:53;10.63;;;8.80;;
1577;SDS011;57623;53.608;10.004;2024-03-06T11:21:28;9.60;;;8.60;;
1577;SDS011;57623;53.608;10.004;2024-03-06T11:24:14;10.03;;;8.97;;
1577;SDS011;57623;53.608;10.004;2024-03-06T11:26:49;9.83;;;8.90;;
1577;SDS011;57623;53.608;10.004;2024-03-06T11:29:23;8.13;;;7.40;;
1577;SDS011;57623;53.608;10.004;2024-03-06T11:32:01;11.97;;;8.47;;
1577;SDS011;57623;53.608;10.004;2024-03-06T11:34:34;9.23;;;8.30;;
1577;SDS011;57623;53.608;10.004;2024-03-06T11:37:04;9.70;;;8.70;;
1577;SDS011;57623;53.608;10.004;2024-03-06T11:39:36;9.20;;;8.30;;
1577;SDS011;57623;53.608;10.004;2024-03-06T11:42:05;9.77;;;8.87;;
1577;SDS011;57623;53.608;10.004;2024-03-06T11:44:35;9.43;;;8.53;;
1577;SDS011;57623;53.608;10.004;2024-03-06T11:47:04;10.03;;;7.90;;
1577;SDS011;57623;53.608;10.004;2024-03-06T11:49:36;9.70;;;8.70;;
1577;SDS011;57623;53.608;10.004;2024-03-06T11:52:06;9.57;;;8.57;;
1577;SDS011;57623;53.608;10.004;2024-03-06T11:54:36;11.00;;;8.50;;
1577;SDS011;57623;53.608;10.004;2024-03-06T11:57:05;8.90;;;8.00;;
1577;SDS011;57623;53.608;10.004;2024-03-06T11:59:34;9.67;;;8.67;;
1577;SDS011;57623;53.608;10.004;2024-03-06T12:02:05;9.93;;;8.93;;
1577;SDS011;57623;53.608;10.004;2024-03-06T12:04:37;9.67;;;8.73;;
1577;SDS011;57623;53.608;10.004;2024-03-06T12:07:06;9.67;;;8.67;;
1577;SDS011;57623;53.608;10.004;2024-03-06T12:09:36;10.60;;;9.50;;
1577;SDS011;57623;53.608;10.004;2024-03-06T12:12:09;10.47;;;9.00;;
1577;SDS011;57623;53.608;10.004;2024-03-06T12:14:38;9.80;;;8.90;;
1577;SDS011;57623;53.608;10.004;2024-03-06T12:17:11;9.53;;;8.63;;
1577;SDS011;57623;53.608;10.004;2024-03-06T12:19:43;9.83;;;8.90;;
1577;SDS011;57623;53.608;10.004;2024-03-06T12:22:12;9.13;;;8.27;;
1577;SDS011;57623;53.608;10.004;2024-03-06T12:24:42;10.77;;;9.77;;
1577;SDS011;57623;53.608;10.004;2024-03-06T12:27:10;10.03;;;8.80;;
1577;SDS011;57623;53.608;10.004;2024-03-06T12:29:39;9.70;;;8.80;;
1577;SDS011;57623;53.608;10.004;2024-03-06T12:32:15;11.30;;;9.37;;
1577;SDS011;57623;53.608;10.004;2024-03-06T12:34:56;9.13;;;8.23;;
1577;SDS011;57623;53.608;10.004;2024-03-06T12:37:29;8.87;;;8.00;;
1577;SDS011;57623;53.608;10.004;2024-03-06T12:39:58;9.90;;;8.60;;
1577;SDS011;57623;53.608;10.004;2024-03-06T12:42:27;9.07;;;8.17;;
1577;SDS011;57623;53.608;10.004;2024-03-06T12:44:55;10.03;;;9.00;;
1577;SDS011;57623;53.608;10.004;2024-03-06T12:47:24;9.60;;;8.27;;
1577;SDS011;57623;53.608;10.004;2024-03-06T12:49:52;12.90;;;8.77;;
1577;SDS011;57623;53.608;10.004;2024-03-06T12:52:21;9.83;;;8.87;;
1577;SDS011;57623;53.608;10.004;2024-03-06T12:54:49;10.57;;;9.40;;
1577;SDS011;57623;53.608;10.004;2024-03-06T12:57:17;9.00;;;8.10;;
1577;SDS011;57623;53.608;10.004;2024-03-06T12:59:45;12.87;;;8.47;;
1577;SDS011;57623;53.608;10.004;2024-03-06T13:02:13;9.33;;;8.13;;
1577;SDS011;57623;53.608;10.004;2024-03-06T13:04:42;10.37;;;8.73;;
1577;SDS011;57623;53.608;10.004;2024-03-06T13:07:10;9.07;;;8.17;;
1577;SDS011;57623;53.608;10.004;2024-03-06T13:09:41;8.50;;;7.70;;
1577;SDS011;57623;53.608;10.004;2024-03-06T13:12:09;9.83;;;7.77;;
1577;SDS011;57623;53.608;10.004;2024-03-06T13:14:37;7.50;;;6.80;;
1577;SDS011;57623;53.608;10.004;2024-03-06T13:17:05;8.33;;;7.53;;
1577;SDS011;57623;53.608;10.004;2024-03-06T13:19:34;8.00;;;7.30;;
1577;SDS011;57623;53.608;10.004;2024-03-06T13:22:02;8.73;;;7.90;;
1577;SDS011;57623;53.608;10.004;2024-03-06T13:24:33;8.60;;;7.90;;
1577;SDS011;57623;53.608;10.004;2024-03-06T13:27:05;7.13;;;6.50;;
1577;SDS011;57623;53.608;10.004;2024-03-06T13:29:34;8.47;;;6.97;;
1577;SDS011;57623;53.608;10.004;2024-03-06T13:32:02;8.63;;;7.83;;
1577;SDS011;57623;53.608;10.004;2024-03-06T13:34:31;8.07;;;7.37;;
1577;SDS011;57623;53.608;10.004;2024-03-06T13:36:59;7.57;;;6.97;;
1577;SDS011;57623;53.608;10.004;2024-03-06T13:39:27;7.37;;;6.77;;
1577;SDS011;57623;53.608;10.004;2024-03-06T13:41:55;8.40;;;7.60;;
1577;SDS011;57623;53.608;10.004;2024-03-06T13:44:24;8.17;;;7.47;;
1577;SDS011;57623;53.608;10.004;2024-03-06T13:46:53;7.30;;;6.70;;
1577;SDS011;57623;53.608;10.004;2024-03-06T13:49:34;8.23;;;7.53;;
1577;SDS011;57623;53.608;10.004;2024-03-06T13:52:03;7.67;;;7.07;;
1577;SDS011;57623;53.608;10.004;2024-03-06T13:54:33;8.10;;;7.50;;
1577;SDS011;57623;53.608;10.004;2024-03-06T13:57:01;7.63;;;7.03;;
1577;SDS011;57623;53.608;10.004;2024-03-06T13:59:31;7.90;;;7.27;;
1577;SDS011;57623;53.608;10.004;2024-03-06T14:02:00;8.10;;;7.47;;
1577;SDS011;57623;53.608;10.004;2024-03-06T14:04:29;8.43;;;7.70;;
1577;SDS011;57623;53.608;10.004;2024-03-06T14:06:57;8.37;;;7.60;;
1577;SDS011;57623;53.608;10.004;2024-03-06T14:09:26;8.17;;;7.47;;
1577;SDS011;57623;53.608;10.004;2024-03-06T14:11:54;8.83;;;8.10;;
1577;SDS011;57623;53.608;10.004;2024-03-06T14:14:23;8.00;;;7.30;;
1577;SDS011;57623;53.608;10.004;2024-03-06T14:16:53;8.27;;;7.57;;
1577;SDS011;57623;53.608;10.004;2024-03-06T14:19:21;8.50;;;7.80;;
1577;SDS011;57623;53.608;10.004;2024-03-06T14:21:49;7.97;;;7.27;;
1577;SDS011;57623;53.608;10.004;2024-03-06T14:24:18;8.63;;;7.73;;
1577;SDS011;57623;53.608;10.004;2024-03-06T14:26:46;7.77;;;7.03;;
1577;SDS011;57623;53.608;10.004;2024-03-06T14:29:16;8.47;;;7.67;;
1577;SDS011;57623;53.608;10.004;2024-03-06T14:31:44;7.40;;;6.67;;
1577;SDS011;57623;53.608;10.004;2024-03-06T14:34:13;7.10;;;6.50;;
1577;SDS011;57623;53.608;10.004;2024-03-06T14:36:41;7.70;;;7.00;;
1577;SDS011;57623;53.608;10.004;2024-03-06T14:39:09;7.10;;;6.50;;
1577;SDS011;57623;53.608;10.004;2024-03-06T14:41:38;7.37;;;6.67;;
1577;SDS011;57623;53.608;10.004;2024-03-06T14:44:08;7.67;;;6.97;;
1577;SDS011;57623;53.608;10.004;2024-03-06T14:46:36;7.47;;;6.87;;
1577;SDS011;57623;53.608;10.004;2024-03-06T14:49:04;7.57;;;6.87;;
1577;SDS011;57623;53.608;10.004;2024-03-06T14:51:34;6.90;;;6.30;;
1577;SDS011;57623;53.608;10.004;2024-03-06T14:54:02;7.30;;;6.30;;
1577;SDS011;57623;53.608;10.004;2024-03-06T14:56:31;7.13;;;6.53;;
1577;SDS011;57623;53.608;10.004;2024-03-06T14:58:59;7.80;;;7.00;;
1577;SDS011;57623;53.608;10.004;2024-03-06T15:01:27;7.50;;;6.80;;
1577;SDS011;57623;53.608;10.004;2024-03-06T15:03:55;7.03;;;6.43;;